Time;durP1;ratioP1;P1;durP2;ratioP2;P2;SDS_P1;SDS_P2;PMS_P1;PMS_P2;Temp;Humidity;BMP_temperature;BMP_pressure;BME280_temperature;BME280_humidity;BME280_pressure;Samples;Min_cycle;Max_cycle;Signal;HPM_P1;HPM_P2
2022/08/16 00:00:56;;;;;;;10.45;7.10;;;20.00;90.00;;;;;;5033252;28;20029;-84
2022/08/16 00:03:22;;;;;;;8.27;7.47;;;20.00;89.80;;;;;;5033179;28;20030;-84
2022/08/16 00:05:47;;;;;;;9.30;7.85;;;19.90;89.90;;;;;;5014704;28;20030;-84
2022/08/16 00:08:13;;;;;;;8.55;6.75;;;20.00;90.30;;;;;;5032735;28;20025;-84
2022/08/16 00:10:39;;;;;;;8.90;7.45;;;20.10;90.30;;;;;;5033510;28;20029;-84
2022/08/16 00:13:08;;;;;;;8.40;7.55;;;20.00;90.60;;;;;;5032910;28;20029;-85
2022/08/16 00:15:41;;;;;;;8.70;7.10;;;19.90;91.80;;;;;;5032872;28;20048;-84
2022/08/16 00:18:08;;;;;;;10.43;8.15;;;19.80;92.00;;;;;;5032824;28;20070;-84
2022/08/16 00:20:36;;;;;;;8.23;7.43;;;19.80;92.30;;;;;;5032630;28;20034;-85
2022/08/16 00:23:03;;;;;;;9.45;8.50;;;19.80;92.80;;;;;;5032757;28;20029;-85
2022/08/16 00:25:29;;;;;;;10.30;9.25;;;19.80;92.00;;;;;;5032765;28;20038;-84
2022/08/16 00:27:55;;;;;;;9.98;8.85;;;19.80;90.60;;;;;;5049803;28;20041;-85
2022/08/16 00:30:22;;;;;;;9.43;8.48;;;19.80;93.10;;;;;;5052521;28;20037;-84
2022/08/16 00:32:51;;;;;;;9.15;8.25;;;19.70;92.90;;;;;;5052573;28;20032;-84
2022/08/16 00:35:20;;;;;;;9.00;8.00;;;19.80;92.80;;;;;;5052806;28;20032;-84
2022/08/16 00:37:46;;;;;;;8.52;7.72;;;19.80;93.30;;;;;;5052417;28;20021;-85
2022/08/16 00:40:18;;;;;;;8.20;7.50;;;19.70;92.80;;;;;;5052593;28;20053;-85
2022/08/16 00:42:44;;;;;;;8.50;7.68;;;19.60;93.20;;;;;;5052470;28;20032;-85
2022/08/16 00:45:38;;;;;;;10.75;8.00;;;19.70;92.70;;;;;;5052339;28;20048;-85
2022/08/16 00:48:06;;;;;;;9.50;7.45;;;19.60;94.00;;;;;;5052284;28;20037;-85
2022/08/16 00:50:38;;;;;;;8.30;7.53;;;19.70;93.50;;;;;;5052230;28;20044;-84
2022/08/16 00:53:05;;;;;;;7.95;7.15;;;19.60;93.90;;;;;;5051799;28;20518;-84
2022/08/16 00:55:31;;;;;;;8.40;7.53;;;19.50;94.00;;;;;;5052161;28;20021;-85
2022/08/16 00:57:58;;;;;;;8.77;7.35;;;19.50;94.40;;;;;;5052397;28;20060;-84
2022/08/16 01:00:27;;;;;;;7.95;7.25;;;19.60;92.60;;;;;;5052184;28;20036;-85
2022/08/16 01:02:58;;;;;;;10.07;7.45;;;19.40;94.20;;;;;;5052105;28;20100;-84
2022/08/16 01:05:24;;;;;;;8.35;7.55;;;19.40;94.90;;;;;;5051755;28;20385;-84
2022/08/16 01:07:51;;;;;;;8.18;7.15;;;19.50;91.70;;;;;;5051782;28;20029;-85
2022/08/16 01:10:16;;;;;;;8.95;7.50;;;19.30;94.90;;;;;;5052624;28;20032;-85
2022/08/16 01:12:42;;;;;;;8.75;7.50;;;19.30;93.10;;;;;;5052083;28;20389;-84
2022/08/16 01:15:09;;;;;;;8.88;8.02;;;19.40;93.40;;;;;;5051833;28;20021;-84
2022/08/16 01:17:35;;;;;;;9.23;8.18;;;19.30;95.00;;;;;;5052272;28;20033;-84
2022/08/16 01:20:06;;;;;;;9.73;7.57;;;19.20;94.00;;;;;;5051837;28;20021;-84
2022/08/16 01:22:34;;;;;;;8.43;7.63;;;19.20;94.70;;;;;;5051999;28;20029;-85
2022/08/16 01:25:25;;;;;;;10.10;7.85;;;19.20;94.90;;;;;;5051767;28;20064;-84
2022/08/16 01:27:54;;;;;;;9.27;7.88;;;19.20;96.20;;;;;;5015943;28;20060;-84
2022/08/16 01:30:30;;;;;;;9.25;8.20;;;19.20;95.50;;;;;;5032023;28;20025;-84
2022/08/16 01:33:00;;;;;;;9.27;8.25;;;19.10;95.50;;;;;;5031916;28;20057;-84
2022/08/16 01:35:31;;;;;;;9.45;7.60;;;19.00;96.00;;;;;;5031408;28;20033;-84
2022/08/16 01:38:23;;;;;;;8.88;7.93;;;19.00;96.20;;;;;;5032340;28;20022;-85
2022/08/16 01:40:56;;;;;;;9.50;8.40;;;19.00;95.70;;;;;;5032293;28;20517;-85
2022/08/16 01:43:23;;;;;;;9.25;8.25;;;18.90;96.30;;;;;;5031931;28;20021;-84
2022/08/16 01:45:56;;;;;;;9.57;7.90;;;18.90;96.50;;;;;;5031804;28;20079;-84
2022/08/16 01:48:26;;;;;;;8.82;7.97;;;18.90;97.10;;;;;;5031718;28;20414;-84
2022/08/16 01:50:52;;;;;;;10.18;7.45;;;19.00;99.90;;;;;;5031564;28;20025;-84
2022/08/16 01:53:18;;;;;;;8.45;7.65;;;18.90;95.80;;;;;;5032107;28;20026;-84
2022/08/16 01:55:44;;;;;;;10.50;8.52;;;18.80;95.60;;;;;;5031609;28;20474;-84
2022/08/16 01:58:12;;;;;;;9.02;8.20;;;18.80;95.40;;;;;;5031746;28;20100;-84
2022/08/16 02:00:37;;;;;;;10.25;8.40;;;18.80;97.20;;;;;;5031742;28;20030;-84
2022/08/16 02:03:03;;;;;;;11.25;8.50;;;18.80;95.50;;;;;;5031570;28;20031;-84
2022/08/16 02:05:29;;;;;;;8.45;7.63;;;18.80;95.10;;;;;;5031395;28;20175;-84
2022/08/16 02:07:55;;;;;;;9.27;8.38;;;18.80;96.50;;;;;;5010669;28;20033;-84
2022/08/16 02:10:20;;;;;;;8.80;8.00;;;18.70;97.10;;;;;;5027066;28;20116;-84
2022/08/16 02:12:46;;;;;;;9.00;8.20;;;18.60;96.30;;;;;;5031576;28;20026;-85
2022/08/16 02:15:14;;;;;;;10.18;8.07;;;18.60;95.30;;;;;;5031686;28;20128;-84
2022/08/16 02:17:40;;;;;;;9.45;8.10;;;18.60;97.90;;;;;;5031642;28;20022;-84
2022/08/16 02:20:07;;;;;;;10.82;8.27;;;18.70;96.70;;;;;;5034778;28;20522;-84
2022/08/16 02:22:34;;;;;;;9.48;8.57;;;18.60;97.80;;;;;;5035475;28;20025;-84
2022/08/16 02:25:00;;;;;;;8.98;8.10;;;18.60;97.20;;;;;;5034924;28;20052;-84
2022/08/16 02:27:25;;;;;;;9.23;8.25;;;18.60;95.80;;;;;;5048047;28;20045;-84
2022/08/16 02:29:51;;;;;;;8.85;8.00;;;18.50;95.20;;;;;;5054912;28;20033;-85
2022/08/16 02:32:17;;;;;;;9.25;8.20;;;18.40;96.80;;;;;;5055074;28;20028;-84
2022/08/16 02:34:43;;;;;;;11.70;8.50;;;18.30;97.00;;;;;;5054586;28;20035;-84
2022/08/16 02:37:09;;;;;;;9.55;7.82;;;18.30;97.30;;;;;;5054896;28;20547;-85
2022/08/16 02:39:35;;;;;;;9.30;8.13;;;18.30;97.80;;;;;;5054684;28;20029;-84
2022/08/16 02:42:01;;;;;;;8.75;7.88;;;18.40;98.00;;;;;;5054056;28;20025;-84
2022/08/16 02:44:27;;;;;;;10.35;7.82;;;18.30;98.10;;;;;;5053650;28;20037;-85
2022/08/16 02:46:53;;;;;;;9.05;8.05;;;18.30;99.80;;;;;;5054265;28;20107;-84
2022/08/16 02:49:19;;;;;;;8.60;7.80;;;18.20;98.30;;;;;;5054687;28;20474;-84
2022/08/16 02:51:44;;;;;;;10.45;8.38;;;18.10;98.30;;;;;;5054079;28;20081;-85
2022/08/16 02:54:12;;;;;;;10.60;7.95;;;18.10;98.40;;;;;;5054718;28;20036;-84
2022/08/16 02:56:38;;;;;;;9.90;8.27;;;18.10;99.10;;;;;;5054607;28;20119;-84
2022/08/16 02:59:04;;;;;;;8.02;7.22;;;18.00;98.60;;;;;;5054394;28;20504;-84
2022/08/16 03:01:32;;;;;;;10.10;8.43;;;18.10;98.30;;;;;;5054095;28;20029;-84
2022/08/16 03:04:00;;;;;;;9.65;8.35;;;18.00;99.90;;;;;;5053819;28;20044;-84
2022/08/16 03:06:26;;;;;;;9.25;7.97;;;18.00;99.90;;;;;;5054181;28;20499;-84
2022/08/16 03:08:53;;;;;;;9.20;8.20;;;18.00;99.90;;;;;;5054222;28;20063;-84
2022/08/16 03:11:19;;;;;;;9.65;8.10;;;18.00;99.40;;;;;;5054176;28;20025;-84
2022/08/16 03:13:46;;;;;;;9.18;8.07;;;18.10;97.60;;;;;;5053863;28;20021;-85
2022/08/16 03:16:12;;;;;;;12.32;8.38;;;18.10;99.90;;;;;;5053484;28;20036;-84
2022/08/16 03:18:38;;;;;;;9.00;8.18;;;18.20;99.20;;;;;;5054401;28;20029;-84
2022/08/16 03:21:06;;;;;;;8.65;7.80;;;18.20;37.60;;;;;;5054029;28;20025;-85
2022/08/16 03:23:32;;;;;;;10.27;8.40;;;18.40;48.40;;;;;;5053725;28;20059;-84
2022/08/16 03:25:57;;;;;;;8.68;7.78;;;18.30;39.60;;;;;;5053775;28;20037;-84
2022/08/16 03:28:23;;;;;;;8.90;8.00;;;18.40;42.50;;;;;;5053665;28;20043;-84
2022/08/16 03:30:49;;;;;;;9.23;8.10;;;18.30;37.60;;;;;;5052623;28;20055;-84
2022/08/16 03:33:15;;;;;;;9.18;8.15;;;18.30;40.60;;;;;;5053836;28;20416;-85
2022/08/16 03:35:42;;;;;;;10.65;8.23;;;18.20;41.70;;;;;;5053633;28;20396;-84
2022/08/16 03:38:12;;;;;;;9.68;8.13;;;18.20;32.30;;;;;;5053965;28;20017;-85
2022/08/16 03:40:38;;;;;;;9.35;8.27;;;18.20;83.80;;;;;;5053643;28;20040;-84
2022/08/16 03:43:08;;;;;;;8.98;8.10;;;18.10;58.00;;;;;;5053475;28;20021;-84
2022/08/16 03:45:34;;;;;;;9.57;8.23;;;18.00;81.50;;;;;;5053000;28;20052;-84
2022/08/16 03:48:01;;;;;;;8.73;7.93;;;18.00;40.90;;;;;;5053503;28;20017;-84
2022/08/16 03:50:28;;;;;;;9.52;8.07;;;18.10;36.80;;;;;;5053754;28;20108;-85
2022/08/16 03:52:53;;;;;;;9.75;8.30;;;18.20;37.50;;;;;;5053362;28;20386;-84
2022/08/16 03:55:19;;;;;;;9.73;8.45;;;18.00;35.10;;;;;;5053345;28;20027;-84
2022/08/16 03:57:45;;;;;;;9.75;7.97;;;18.00;33.30;;;;;;5053275;28;20021;-85
2022/08/16 04:00:19;;;;;;;10.40;7.95;;;18.10;34.30;;;;;;5053114;28;20044;-84
2022/08/16 04:02:45;;;;;;;9.27;8.32;;;17.90;36.10;;;;;;5053163;28;20036;-84
2022/08/16 04:05:13;;;;;;;8.60;7.78;;;18.00;33.30;;;;;;5053175;28;20037;-84
2022/08/16 04:07:39;;;;;;;8.15;7.35;;;18.10;36.60;;;;;;5053020;28;20024;-84
2022/08/16 04:10:07;;;;;;;9.73;8.30;;;18.00;34.20;;;;;;5053141;28;20036;-85
2022/08/16 04:12:33;;;;;;;11.15;8.27;;;17.90;35.20;;;;;;5053107;28;20037;-84
2022/08/16 04:15:01;;;;;;;10.75;8.18;;;17.90;33.90;;;;;;5052358;28;20059;-85
2022/08/16 04:17:26;;;;;;;8.93;8.00;;;17.90;35.90;;;;;;5053232;28;20041;-84
2022/08/16 04:19:52;;;;;;;9.25;8.45;;;18.00;44.00;;;;;;5052768;28;20505;-84
2022/08/16 04:22:18;;;;;;;9.68;8.73;;;17.90;31.90;;;;;;5052660;28;20504;-84
2022/08/16 04:24:44;;;;;;;9.38;8.50;;;17.90;33.40;;;;;;5052377;28;20033;-84
2022/08/16 04:27:10;;;;;;;9.30;8.40;;;17.90;34.40;;;;;;5052573;28;20053;-84
2022/08/16 04:29:36;;;;;;;9.43;8.40;;;17.80;31.90;;;;;;5052186;28;20397;-85
2022/08/16 04:32:02;;;;;;;9.25;8.45;;;17.70;32.00;;;;;;5053070;28;20029;-84
2022/08/16 04:34:31;;;;;;;9.00;8.10;;;17.70;31.10;;;;;;5052394;28;20029;-84
2022/08/16 04:36:57;;;;;;;9.05;8.10;;;17.70;34.10;;;;;;5052923;28;20033;-84
2022/08/16 04:39:25;;;;;;;9.48;8.48;;;17.70;35.70;;;;;;5052497;28;20028;-84
2022/08/16 04:41:51;;;;;;;9.80;8.77;;;17.70;38.80;;;;;;5052107;28;20032;-84
2022/08/16 04:44:16;;;;;;;11.65;8.63;;;17.70;32.40;;;;;;5052304;28;20182;-84
2022/08/16 04:46:42;;;;;;;9.65;8.43;;;17.60;34.00;;;;;;5052558;28;20032;-84
2022/08/16 04:49:09;;;;;;;9.73;8.75;;;17.60;32.80;;;;;;5052402;28;20108;-84
2022/08/16 04:51:35;;;;;;;9.70;8.80;;;17.60;32.20;;;;;;5052351;28;20076;-85
2022/08/16 04:54:01;;;;;;;10.00;8.73;;;17.60;36.30;;;;;;5052280;28;20430;-84
2022/08/16 04:56:26;;;;;;;9.27;8.35;;;17.50;38.00;;;;;;5052140;28;20033;-84
2022/08/16 04:58:52;;;;;;;9.77;8.50;;;17.70;38.90;;;;;;5051919;28;20024;-84
2022/08/16 05:01:17;;;;;;;9.60;8.77;;;17.60;39.30;;;;;;5052218;28;20405;-84
2022/08/16 05:03:43;;;;;;;9.45;8.55;;;17.50;40.20;;;;;;5052256;28;20071;-85
2022/08/16 05:06:09;;;;;;;9.50;8.55;;;17.40;38.00;;;;;;5052390;28;20464;-84
2022/08/16 05:08:35;;;;;;;9.10;8.25;;;17.40;37.50;;;;;;5052070;28;20025;-84
2022/08/16 05:11:03;;;;;;;9.48;8.55;;;17.50;38.40;;;;;;5052127;28;20107;-85
2022/08/16 05:13:30;;;;;;;8.88;8.07;;;17.60;40.40;;;;;;5051425;28;20393;-84
2022/08/16 05:15:56;;;;;;;9.32;8.32;;;17.70;39.40;;;;;;5052182;28;20051;-85
2022/08/16 05:18:22;;;;;;;11.10;8.38;;;17.60;48.10;;;;;;5052049;28;20826;-84
2022/08/16 05:20:47;;;;;;;12.43;9.15;;;17.60;39.60;;;;;;5051899;28;20052;-87
2022/08/16 05:23:15;;;;;;;9.18;8.27;;;17.60;35.10;;;;;;5050900;28;20098;-85
2022/08/16 05:25:41;;;;;;;9.43;8.40;;;17.50;38.80;;;;;;5051871;28;20405;-84
2022/08/16 05:28:09;;;;;;;9.55;8.63;;;17.70;37.60;;;;;;5050789;28;20052;-84
2022/08/16 05:30:35;;;;;;;9.07;8.18;;;17.70;38.10;;;;;;5051676;28;20058;-85
2022/08/16 05:33:00;;;;;;;9.57;8.63;;;17.60;38.60;;;;;;5051781;28;20021;-85
2022/08/16 05:35:26;;;;;;;10.05;8.27;;;17.70;38.50;;;;;;5051822;28;20029;-84
2022/08/16 05:37:51;;;;;;;9.93;8.93;;;17.80;40.30;;;;;;5051871;28;20052;-84
2022/08/16 05:40:17;;;;;;;9.32;8.43;;;17.80;39.70;;;;;;5033745;28;20029;-85
2022/08/16 05:42:43;;;;;;;9.48;8.50;;;17.90;36.30;;;;;;5051348;28;20032;-84
2022/08/16 05:45:09;;;;;;;9.02;7.97;;;18.00;35.60;;;;;;5051545;28;20047;-85
2022/08/16 05:47:35;;;;;;;8.73;7.82;;;18.20;37.90;;;;;;5052143;28;20494;-85
2022/08/16 05:50:01;;;;;;;8.93;8.13;;;18.20;39.80;;;;;;5051759;28;20036;-84
2022/08/16 05:52:26;;;;;;;8.40;7.55;;;18.20;37.50;;;;;;5051588;28;20641;-85
2022/08/16 05:54:52;;;;;;;9.57;8.35;;;18.30;44.70;;;;;;5055597;28;20112;-84
2022/08/16 05:57:18;;;;;;;9.57;8.68;;;18.40;36.10;;;;;;5055209;28;20424;-84
2022/08/16 05:59:46;;;;;;;9.52;7.80;;;18.40;37.80;;;;;;5055576;28;20025;-84
2022/08/16 06:02:12;;;;;;;8.98;8.07;;;18.50;37.20;;;;;;5055374;28;20024;-84
2022/08/16 06:04:38;;;;;;;9.88;8.00;;;18.50;34.30;;;;;;5055361;28;20051;-84
2022/08/16 06:07:05;;;;;;;9.13;8.32;;;18.70;32.20;;;;;;5055387;28;20025;-84
2022/08/16 06:09:32;;;;;;;8.90;8.10;;;18.80;35.40;;;;;;5055091;28;20036;-84
2022/08/16 06:12:00;;;;;;;8.50;7.78;;;18.80;36.70;;;;;;5055326;28;20029;-84
2022/08/16 06:14:26;;;;;;;8.77;7.88;;;18.90;32.30;;;;;;5054585;28;20147;-84
2022/08/16 06:16:52;;;;;;;10.93;7.45;;;18.80;34.70;;;;;;5055112;28;20029;-85
2022/08/16 06:19:18;;;;;;;9.10;8.20;;;18.90;31.10;;;;;;5055022;28;20503;-85
2022/08/16 06:21:45;;;;;;;9.57;8.70;;;19.00;35.30;;;;;;5054733;28;20035;-91
2022/08/16 06:24:11;;;;;;;11.38;8.73;;;19.10;47.40;;;;;;5054778;28;20051;-91
2022/08/16 06:26:37;;;;;;;8.25;7.45;;;19.20;48.80;;;;;;5054731;28;20548;-91
2022/08/16 06:29:03;;;;;;;9.15;8.10;;;19.20;48.20;;;;;;5054868;28;20394;-91
2022/08/16 06:31:28;;;;;;;9.18;8.27;;;19.30;52.40;;;;;;5055184;28;20028;-91
2022/08/16 06:33:55;;;;;;;11.43;8.90;;;19.40;41.80;;;;;;5046704;28;20040;-91
2022/08/16 06:36:22;;;;;;;9.35;8.45;;;19.50;44.40;;;;;;5054853;28;20108;-92
2022/08/16 06:38:49;;;;;;;9.60;8.70;;;19.60;98.90;;;;;;5054852;28;20547;-91
2022/08/16 06:41:15;;;;;;;9.27;8.35;;;19.60;99.50;;;;;;5054306;28;20082;-91
2022/08/16 06:43:40;;;;;;;9.27;8.32;;;19.70;98.30;;;;;;5054924;28;20096;-91
2022/08/16 06:46:09;;;;;;;11.43;8.63;;;19.60;96.80;;;;;;5054539;28;20033;-91
2022/08/16 06:48:35;;;;;;;10.35;8.23;;;19.70;97.30;;;;;;5054718;28;20025;-91
2022/08/16 06:51:05;;;;;;;9.27;8.35;;;20.00;94.40;;;;;;5054651;28;20029;-91
2022/08/16 06:53:32;;;;;;;9.25;8.35;;;20.00;93.80;;;;;;5054582;28;20021;-91
2022/08/16 06:55:59;;;;;;;9.65;8.60;;;20.20;66.40;;;;;;5053874;28;20032;-91
2022/08/16 06:58:25;;;;;;;13.05;8.00;;;20.30;76.10;;;;;;5053779;28;20056;-90
2022/08/16 07:00:51;;;;;;;9.35;8.45;;;20.50;69.50;;;;;;5054151;28;20025;-89
2022/08/16 07:03:17;;;;;;;9.27;7.95;;;20.50;59.20;;;;;;5054230;28;20091;-89
2022/08/16 07:05:42;;;;;;;9.63;8.63;;;20.70;61.40;;;;;;5054388;28;20043;-88
2022/08/16 07:08:10;;;;;;;9.35;8.05;;;20.70;58.70;;;;;;5053661;28;20033;-88
2022/08/16 07:10:36;;;;;;;10.13;7.78;;;20.80;62.20;;;;;;5054178;28;20094;-88
2022/08/16 07:13:02;;;;;;;12.27;7.85;;;20.90;63.50;;;;;;5053809;28;20029;-88
2022/08/16 07:15:27;;;;;;;9.05;7.50;;;20.90;60.70;;;;;;5054057;28;20075;-88
2022/08/16 07:17:53;;;;;;;10.55;8.65;;;21.00;59.20;;;;;;5054140;28;20469;-89
2022/08/16 07:20:21;;;;;;;9.88;7.88;;;21.00;57.80;;;;;;5053760;28;20025;-88
2022/08/16 07:22:47;;;;;;;9.65;8.77;;;21.10;70.40;;;;;;5053802;28;20036;-88
2022/08/16 07:25:14;;;;;;;12.15;9.00;;;21.30;57.50;;;;;;5053930;28;20037;-88
2022/08/16 07:27:40;;;;;;;11.32;9.05;;;21.40;59.00;;;;;;5053818;28;20509;-89
2022/08/16 07:30:09;;;;;;;9.02;8.13;;;21.60;64.40;;;;;;5053719;28;20033;-89
2022/08/16 07:32:34;;;;;;;9.30;8.35;;;21.60;68.30;;;;;;5053635;28;20021;-88
2022/08/16 07:35:00;;;;;;;9.18;7.65;;;21.60;54.90;;;;;;5053697;28;20495;-88
2022/08/16 07:37:26;;;;;;;8.32;7.50;;;21.70;52.00;;;;;;5035784;28;20104;-88
2022/08/16 07:39:52;;;;;;;8.23;7.43;;;21.70;54.70;;;;;;5053619;28;20052;-88
2022/08/16 07:42:18;;;;;;;9.43;7.40;;;21.70;57.80;;;;;;5053517;28;20091;-88
2022/08/16 07:44:43;;;;;;;7.95;7.25;;;21.80;56.40;;;;;;5053699;28;20029;-88
2022/08/16 07:47:09;;;;;;;8.52;7.65;;;21.90;57.10;;;;;;5053563;28;20029;-88
2022/08/16 07:49:35;;;;;;;9.45;7.85;;;22.00;58.20;;;;;;5053393;28;20428;-89
2022/08/16 07:52:01;;;;;;;8.85;8.00;;;22.00;58.50;;;;;;5052989;28;20021;-88
2022/08/16 07:54:26;;;;;;;9.27;7.95;;;22.10;58.30;;;;;;5053290;28;20056;-89
2022/08/16 07:56:52;;;;;;;9.35;7.97;;;22.20;57.50;;;;;;5035807;28;20029;-88
2022/08/16 07:59:18;;;;;;;8.38;7.65;;;22.30;56.40;;;;;;5053351;28;20067;-88
2022/08/16 08:01:44;;;;;;;9.65;7.90;;;22.40;62.60;;;;;;5053190;28;20184;-88
2022/08/16 08:04:12;;;;;;;8.82;8.02;;;22.40;59.30;;;;;;5053220;28;20055;-88
2022/08/16 08:06:38;;;;;;;8.65;7.85;;;22.50;62.70;;;;;;5052742;28;20033;-88
2022/08/16 08:09:04;;;;;;;9.23;8.20;;;22.70;59.70;;;;;;5053036;28;20028;-88
2022/08/16 08:11:30;;;;;;;10.23;8.02;;;22.80;59.00;;;;;;5052918;28;20029;-88
2022/08/16 08:13:58;;;;;;;9.82;7.43;;;22.90;54.80;;;;;;5052767;28;20028;-88
2022/08/16 08:16:25;;;;;;;11.10;7.63;;;23.10;60.60;;;;;;5052339;28;20074;-89
2022/08/16 08:18:51;;;;;;;8.77;7.28;;;23.10;53.70;;;;;;5052822;28;20020;-88
2022/08/16 08:21:18;;;;;;;7.43;6.65;;;23.20;35.40;;;;;;5052370;28;20025;-88
2022/08/16 08:23:45;;;;;;;7.65;6.80;;;23.30;32.70;;;;;;5052680;28;20021;-88
2022/08/16 08:26:11;;;;;;;8.68;7.07;;;23.50;31.40;;;;;;5034778;28;20489;-89
2022/08/16 08:28:36;;;;;;;7.55;6.78;;;23.60;34.70;;;;;;5052959;28;20041;-88
2022/08/16 08:31:02;;;;;;;7.68;6.97;;;23.70;41.60;;;;;;5052610;28;20032;-89
2022/08/16 08:33:30;;;;;;;8.00;7.07;;;23.70;38.60;;;;;;5052629;28;20021;-89
2022/08/16 08:36:00;;;;;;;8.60;7.20;;;23.80;31.40;;;;;;5052241;28;20037;-89
2022/08/16 08:38:28;;;;;;;7.57;6.88;;;23.90;30.40;;;;;;5052504;28;20485;-89
2022/08/16 08:40:54;;;;;;;7.53;6.82;;;24.00;32.30;;;;;;5052224;28;20025;-89
2022/08/16 08:43:21;;;;;;;8.82;6.53;;;24.10;32.20;;;;;;5052872;28;20108;-88
2022/08/16 08:45:47;;;;;;;8.32;7.43;;;24.30;40.70;;;;;;5052319;28;20481;-89
2022/08/16 08:48:13;;;;;;;6.82;6.13;;;24.40;31.90;;;;;;5051999;28;20087;-89
2022/08/16 08:50:41;;;;;;;6.60;6.00;;;24.60;31.10;;;;;;5052180;28;20017;-89
2022/08/16 08:53:07;;;;;;;6.90;6.30;;;24.80;30.80;;;;;;5052261;28;20033;-89
2022/08/16 08:55:33;;;;;;;9.15;6.15;;;25.10;40.80;;;;;;5052676;28;20100;-88
2022/08/16 08:57:59;;;;;;;8.15;6.13;;;25.00;30.00;;;;;;5052322;28;20029;-89
2022/08/16 09:00:26;;;;;;;7.22;6.10;;;25.30;38.00;;;;;;5053133;28;20112;-89
2022/08/16 09:02:52;;;;;;;7.60;6.10;;;25.60;31.80;;;;;;5052575;28;20116;-89
2022/08/16 09:05:19;;;;;;;6.72;6.07;;;25.60;37.10;;;;;;5051976;28;20537;-88
2022/08/16 09:07:49;;;;;;;6.65;6.00;;;25.70;38.70;;;;;;5051714;28;20024;-89
2022/08/16 09:10:15;;;;;;;6.88;5.93;;;25.60;32.20;;;;;;5052417;28;20025;-89
2022/08/16 09:12:41;;;;;;;6.47;5.88;;;25.70;28.60;;;;;;5051380;28;20036;-89
2022/08/16 09:15:08;;;;;;;7.07;5.63;;;25.80;29.30;;;;;;5051847;28;20056;-89
2022/08/16 09:17:34;;;;;;;6.65;6.00;;;25.90;27.90;;;;;;5052075;28;20489;-89
2022/08/16 09:19:59;;;;;;;6.65;6.05;;;26.00;27.50;;;;;;5051672;28;20027;-89
2022/08/16 09:22:27;;;;;;;6.65;5.82;;;26.20;26.10;;;;;;5051848;28;20017;-89
2022/08/16 09:24:53;;;;;;;6.90;6.13;;;26.30;24.80;;;;;;5052199;28;20033;-89
2022/08/16 09:27:22;;;;;;;7.22;6.18;;;26.30;24.80;;;;;;5051872;28;20049;-89
2022/08/16 09:29:48;;;;;;;7.53;6.47;;;26.40;27.50;;;;;;5055721;28;20420;-89
2022/08/16 09:32:15;;;;;;;6.38;5.60;;;26.40;25.60;;;;;;5055092;28;20075;-89
2022/08/16 09:34:41;;;;;;;7.65;6.70;;;26.60;26.20;;;;;;5055437;28;20025;-89
2022/08/16 09:37:06;;;;;;;6.90;6.30;;;26.60;23.00;;;;;;5055865;28;20397;-89
2022/08/16 09:39:32;;;;;;;6.75;5.95;;;26.70;23.40;;;;;;5055832;28;20021;-89
2022/08/16 09:41:59;;;;;;;6.78;5.90;;;26.60;22.30;;;;;;5055841;28;20061;-89
2022/08/16 09:44:26;;;;;;;6.50;5.95;;;26.70;22.40;;;;;;5055929;28;20041;-88
2022/08/16 09:46:54;;;;;;;7.85;6.30;;;26.80;23.90;;;;;;5055567;28;20017;-89
2022/08/16 09:49:21;;;;;;;7.18;6.03;;;27.10;24.50;;;;;;5055325;28;20031;-89
2022/08/16 09:51:53;;;;;;;9.18;5.80;;;27.30;24.00;;;;;;5055572;28;20025;-89
2022/08/16 09:54:20;;;;;;;7.35;6.30;;;27.30;24.50;;;;;;5055469;28;20057;-89
2022/08/16 09:56:47;;;;;;;6.43;5.82;;;27.30;23.60;;;;;;5055741;28;20033;-89
2022/08/16 09:59:14;;;;;;;6.93;6.22;;;27.30;23.30;;;;;;5036392;28;20394;-89
2022/08/16 10:01:41;;;;;;;6.50;5.90;;;27.40;24.50;;;;;;5056912;28;20025;-89
2022/08/16 10:04:07;;;;;;;6.90;6.30;;;27.50;21.40;;;;;;5054446;28;20044;-89
2022/08/16 10:06:35;;;;;;;6.30;5.78;;;27.70;33.40;;;;;;5056385;28;20569;-88
2022/08/16 10:09:06;;;;;;;7.78;5.90;;;27.70;85.60;;;;;;5055350;28;20536;-88
2022/08/16 10:14:17;;;;;;;6.45;5.85;;;28.00;85.60;;;;;;5056870;28;20562;-88
2022/08/16 10:16:44;;;;;;;6.70;5.72;;;28.20;84.30;;;;;;5053582;28;20033;-88
2022/08/16 10:19:11;;;;;;;7.60;5.85;;;28.40;87.20;;;;;;5072679;28;20032;-88
2022/08/16 10:21:38;;;;;;;12.07;10.15;;;28.60;90.10;;;;;;5056052;28;20020;-88
2022/08/16 10:24:04;;;;;;;6.30;5.70;;;28.70;89.80;;;;;;5055176;28;20064;-88
2022/08/16 10:26:32;;;;;;;6.55;5.93;;;28.70;90.30;;;;;;5054460;28;20049;-88
2022/08/16 10:28:58;;;;;;;9.45;7.18;;;28.80;89.60;;;;;;5054260;28;20052;-88
2022/08/16 10:31:25;;;;;;;8.95;5.47;;;29.00;89.90;;;;;;5061704;28;20444;-88
2022/08/16 10:33:52;;;;;;;6.97;6.03;;;29.20;86.80;;;;;;5036387;28;20416;-88
2022/08/16 10:36:18;;;;;;;6.40;5.90;;;29.40;89.40;;;;;;5074688;28;20451;-88
2022/08/16 10:38:44;;;;;;;8.07;5.57;;;29.70;90.10;;;;;;5067424;28;20017;-88
2022/08/16 10:41:11;;;;;;;6.35;5.70;;;31.10;91.20;;;;;;5054239;28;20029;-88
2022/08/16 10:43:38;;;;;;;5.88;5.32;;;34.60;92.90;;;;;;5059284;28;20021;-88
2022/08/16 10:46:07;;;;;;;6.25;5.63;;;37.80;91.70;;;;;;5074124;28;20044;-88
2022/08/16 10:48:33;;;;;;;7.25;5.70;;;40.40;90.10;;;;;;5062235;28;20028;-88
2022/08/16 10:50:59;;;;;;;7.32;5.45;;;40.80;85.00;;;;;;5054741;28;20488;-88
2022/08/16 10:53:27;;;;;;;6.22;5.47;;;40.50;84.60;;;;;;5053904;28;20027;-89
2022/08/16 10:55:53;;;;;;;5.70;5.15;;;42.60;85.30;;;;;;5054793;28;20100;-88
2022/08/16 10:58:18;;;;;;;5.30;4.55;;;43.10;79.00;;;;;;5054668;28;20504;-88
2022/08/16 11:00:45;;;;;;;5.35;4.85;;;41.20;75.30;;;;;;5053893;28;20025;-89
2022/08/16 11:03:10;;;;;;;7.72;4.55;;;41.50;73.60;;;;;;5054212;28;20037;-89
2022/08/16 11:05:38;;;;;;;4.70;4.30;;;41.60;73.70;;;;;;5053930;28;20520;-89
2022/08/16 11:08:06;;;;;;;4.88;4.47;;;42.80;72.00;;;;;;5057958;28;20020;-89
2022/08/16 11:10:38;;;;;;;5.15;4.65;;;41.60;70.10;;;;;;5074242;28;20040;-89
2022/08/16 11:13:05;;;;;;;5.10;4.70;;;42.10;68.60;;;;;;5052446;28;20033;-89
2022/08/16 11:15:31;;;;;;;5.20;4.70;;;39.90;66.10;;;;;;5053388;28;20079;-88
2022/08/16 11:17:57;;;;;;;5.20;4.70;;;40.60;65.50;;;;;;5052902;28;20037;-88
2022/08/16 11:20:23;;;;;;;4.80;4.40;;;43.60;64.00;;;;;;5067360;28;20025;-89
2022/08/16 11:22:49;;;;;;;5.25;4.75;;;44.80;59.60;;;;;;5073175;28;20036;-90
2022/08/16 11:25:20;;;;;;;5.10;4.65;;;43.00;57.20;;;;;;5052574;28;20060;-90
2022/08/16 11:27:45;;;;;;;5.03;4.47;;;43.30;58.50;;;;;;5054121;28;20505;-89
2022/08/16 11:30:13;;;;;;;4.90;4.50;;;41.70;56.00;;;;;;5052797;28;20349;-90
2022/08/16 11:32:39;;;;;;;5.22;4.65;;;42.20;52.70;;;;;;5053134;28;20036;-92
2022/08/16 11:35:11;;;;;;;6.95;4.78;;;41.50;54.70;;;;;;5053276;28;20045;-91
2022/08/16 11:37:36;;;;;;;5.28;4.78;;;40.10;53.90;;;;;;5053602;28;20567;-91
2022/08/16 11:40:05;;;;;;;5.80;4.60;;;40.50;55.40;;;;;;5036520;28;20033;-91
2022/08/16 11:42:31;;;;;;;6.47;4.80;;;42.90;56.00;;;;;;5055227;28;20078;-92
2022/08/16 11:44:56;;;;;;;5.20;4.43;;;42.40;52.80;;;;;;5053176;28;20041;-92
2022/08/16 11:47:22;;;;;;;5.80;5.20;;;43.10;52.20;;;;;;5054541;28;20514;-87
2022/08/16 11:49:48;;;;;;;4.97;4.45;;;45.20;50.70;;;;;;5053851;28;20043;-87
2022/08/16 11:52:16;;;;;;;4.60;4.30;;;45.60;47.90;;;;;;5052126;28;20264;-86
2022/08/16 11:54:45;;;;;;;4.78;4.38;;;43.60;47.30;;;;;;5053738;28;20025;-86
2022/08/16 11:57:12;;;;;;;5.13;4.50;;;44.10;49.60;;;;;;5053441;28;20029;-86
2022/08/16 11:59:39;;;;;;;5.03;4.60;;;44.70;46.00;;;;;;5053464;28;20025;-87
2022/08/16 12:02:05;;;;;;;5.55;4.65;;;44.30;47.30;;;;;;5053649;28;20108;-86
2022/08/16 12:04:32;;;;;;;4.97;4.47;;;43.70;46.00;;;;;;5053579;28;20032;-86
2022/08/16 12:06:59;;;;;;;4.75;4.35;;;43.40;45.80;;;;;;5053618;28;20108;-87
2022/08/16 12:09:26;;;;;;;4.88;4.30;;;44.70;47.70;;;;;;5052910;28;20032;-86
2022/08/16 12:11:52;;;;;;;6.18;4.63;;;42.60;45.80;;;;;;5053594;28;20043;-87
2022/08/16 12:14:18;;;;;;;6.63;4.00;;;42.30;44.00;;;;;;5064179;28;20488;-87
2022/08/16 12:16:44;;;;;;;5.05;4.55;;;41.30;43.40;;;;;;5073382;28;20374;-87
2022/08/16 12:19:09;;;;;;;4.93;4.40;;;41.50;41.30;;;;;;5073168;28;20032;-86
2022/08/16 12:21:35;;;;;;;4.80;4.40;;;43.80;43.70;;;;;;5072914;28;20492;-86
2022/08/16 12:24:01;;;;;;;4.93;4.10;;;44.20;40.50;;;;;;5073080;28;20516;-87
2022/08/16 12:26:27;;;;;;;4.45;4.05;;;41.70;39.80;;;;;;5073473;28;20127;-87
2022/08/16 12:28:53;;;;;;;5.78;4.30;;;40.40;44.40;;;;;;5066173;28;20025;-86
2022/08/16 12:31:20;;;;;;;4.68;4.28;;;41.40;42.00;;;;;;5053142;28;20470;-88
2022/08/16 12:33:46;;;;;;;5.97;4.35;;;42.30;44.10;;;;;;5052149;28;20555;-87
2022/08/16 12:36:12;;;;;;;4.93;4.38;;;41.80;41.10;;;;;;5057273;28;20017;-87
2022/08/16 12:38:39;;;;;;;4.80;4.22;;;41.80;38.30;;;;;;5064259;28;20481;-86
2022/08/16 12:41:05;;;;;;;4.57;4.18;;;41.80;43.60;;;;;;5052541;28;20025;-87
2022/08/16 12:43:31;;;;;;;4.78;4.38;;;41.50;41.20;;;;;;5052566;28;20029;-86
2022/08/16 12:45:58;;;;;;;5.10;4.65;;;41.10;40.00;;;;;;5052336;28;20102;-88